Time;durP1;ratioP1;P1;durP2;ratioP2;P2;SDS_P1;SDS_P2;PMS_P1;PMS_P2;Temp;Humidity;BMP_temperature;BMP_pressure;BME280_temperature;BME280_humidity;BME280_pressure;Samples;Min_cycle;Max_cycle;Signal;HPM_P1;HPM_P2
2023/08/04 00:01:55;;;;;;;113.95;58.53;;;22.20;72.70;;;;;;5011682;28;20034;-49
2023/08/04 00:04:21;;;;;;;251.32;141.43;;;22.30;72.80;;;;;;5011158;28;20113;-49
2023/08/04 00:06:47;;;;;;;236.65;141.52;;;22.20;73.10;;;;;;5010587;28;20116;-50
2023/08/04 00:09:13;;;;;;;140.32;75.63;;;22.20;72.70;;;;;;5011817;28;20065;-53
2023/08/04 00:11:39;;;;;;;192.52;111.40;;;22.20;72.70;;;;;;5004132;28;20133;-50
2023/08/04 00:14:05;;;;;;;171.48;97.68;;;22.30;72.60;;;;;;5011667;28;20527;-49
2023/08/04 00:16:30;;;;;;;171.43;95.75;;;22.20;72.80;;;;;;5011356;28;20021;-51
2023/08/04 00:18:56;;;;;;;157.43;91.10;;;22.20;72.90;;;;;;5011641;28;20072;-51
2023/08/04 00:21:22;;;;;;;143.27;88.00;;;22.30;72.80;;;;;;5011347;28;20037;-52
2023/08/04 00:23:48;;;;;;;140.77;86.60;;;22.30;72.80;;;;;;5011388;28;20030;-53
2023/08/04 00:26:14;;;;;;;148.23;86.47;;;22.20;72.60;;;;;;5011918;28;20133;-52
2023/08/04 00:28:39;;;;;;;138.90;83.57;;;22.30;72.90;;;;;;5013715;28;20112;-51
2023/08/04 00:31:05;;;;;;;143.20;83.05;;;22.30;73.00;;;;;;5013895;28;20033;-51
2023/08/04 00:33:31;;;;;;;147.15;83.18;;;22.30;73.10;;;;;;5011581;28;20041;-49
2023/08/04 00:35:57;;;;;;;141.45;81.57;;;22.30;73.10;;;;;;5011692;28;20033;-48
2023/08/04 00:38:22;;;;;;;127.47;78.85;;;22.30;73.00;;;;;;5011455;28;20481;-49
2023/08/04 00:40:49;;;;;;;131.35;80.47;;;22.30;73.20;;;;;;5012409;28;20160;-54
2023/08/04 00:43:16;;;;;;;130.23;76.07;;;22.20;73.00;;;;;;5012468;28;20022;-49
2023/08/04 00:45:42;;;;;;;127.60;73.30;;;22.30;73.00;;;;;;5011030;28;20367;-48
2023/08/04 00:48:08;;;;;;;119.63;71.70;;;22.20;72.80;;;;;;5012338;28;20053;-48
2023/08/04 00:50:34;;;;;;;122.68;70.43;;;22.20;72.80;;;;;;5012302;28;20030;-51
2023/08/04 00:53:01;;;;;;;117.43;67.15;;;22.20;72.80;;;;;;5013585;28;20500;-52
2023/08/04 00:55:27;;;;;;;115.63;69.03;;;22.20;72.80;;;;;;5013222;28;20026;-51
2023/08/04 00:57:56;;;;;;;124.18;66.07;;;22.20;72.80;;;;;;4995759;28;20038;-49
2023/08/04 01:00:22;;;;;;;114.07;62.78;;;22.20;72.80;;;;;;5013101;28;20037;-49
2023/08/04 01:02:47;;;;;;;105.82;64.35;;;22.20;72.80;;;;;;5013481;28;20030;-48
2023/08/04 01:05:13;;;;;;;107.38;62.42;;;22.20;72.80;;;;;;5013105;28;20113;-48
2023/08/04 01:08:03;;;;;;;97.75;59.05;;;22.20;72.80;;;;;;5013407;28;20026;-48
2023/08/04 01:10:45;;;;;;;;;;;22.20;72.80;;;;;;5013840;28;20041;-53
2023/08/04 01:13:13;;;;;;;101.30;58.85;;;22.20;72.80;;;;;;5028483;28;19937;-53
2023/08/04 01:15:40;;;;;;;96.85;55.92;;;22.20;72.80;;;;;;5012716;28;20026;-55
2023/08/04 01:18:06;;;;;;;91.38;55.05;;;22.20;72.80;;;;;;5013102;28;20091;-54
2023/08/04 01:20:32;;;;;;;83.82;49.67;;;22.20;72.80;;;;;;5011812;28;20030;-53
2023/08/04 01:22:58;;;;;;;89.75;50.95;;;22.20;72.80;;;;;;5012992;28;20030;-53
2023/08/04 01:25:30;;;;;;;83.68;51.10;;;22.20;72.80;;;;;;5012355;28;20033;-56
2023/08/04 01:28:00;;;;;;;81.88;46.88;;;22.20;72.80;;;;;;5013006;28;20036;-53
2023/08/04 01:30:27;;;;;;;84.53;49.17;;;22.20;72.70;;;;;;5012971;28;20058;-52
2023/08/04 01:32:53;;;;;;;81.00;46.63;;;22.20;72.60;;;;;;5012761;28;20022;-55
2023/08/04 01:35:19;;;;;;;75.78;46.72;;;22.20;72.60;;;;;;5012389;28;20026;-55
2023/08/04 01:37:45;;;;;;;78.40;44.92;;;22.30;72.70;;;;;;5028006;28;20022;-52
2023/08/04 01:40:12;;;;;;;70.50;42.65;;;22.30;72.60;;;;;;5012622;28;20153;-54
2023/08/04 01:42:38;;;;;;;69.70;41.92;;;22.20;72.60;;;;;;5012866;28;20030;-50
2023/08/04 01:45:04;;;;;;;69.57;41.70;;;22.20;72.50;;;;;;5012417;28;20034;-53
2023/08/04 01:47:30;;;;;;;66.65;40.92;;;22.30;72.60;;;;;;5012570;28;20127;-54
2023/08/04 01:49:56;;;;;;;72.57;40.22;;;22.30;72.60;;;;;;5012586;28;20501;-52
2023/08/04 01:52:22;;;;;;;62.80;38.05;;;22.30;72.50;;;;;;5012527;28;20029;-55
2023/08/04 01:54:48;;;;;;;63.30;37.47;;;22.30;72.60;;;;;;5010893;28;20109;-50
2023/08/04 01:57:14;;;;;;;63.90;37.13;;;22.30;72.50;;;;;;5012415;28;20173;-52
2023/08/04 01:59:40;;;;;;;59.03;36.65;;;22.30;72.60;;;;;;5011136;28;20026;-53
2023/08/04 02:02:07;;;;;;;57.15;35.53;;;22.30;72.40;;;;;;5027561;28;20175;-54
2023/08/04 02:04:33;;;;;;;54.10;32.58;;;22.30;72.40;;;;;;5012101;28;20450;-52
2023/08/04 02:06:59;;;;;;;55.42;31.45;;;22.30;72.50;;;;;;5012014;28;20108;-53
2023/08/04 02:09:27;;;;;;;54.40;31.73;;;22.30;72.40;;;;;;5010711;28;20477;-54
2023/08/04 02:11:55;;;;;;;50.35;28.55;;;22.30;72.50;;;;;;5011123;28;20515;-54
2023/08/04 02:14:22;;;;;;;46.42;29.70;;;22.30;72.50;;;;;;5012074;28;20022;-49
2023/08/04 02:16:47;;;;;;;51.85;29.15;;;22.30;72.50;;;;;;5011803;28;20125;-54
2023/08/04 02:19:13;;;;;;;52.17;29.23;;;22.30;73.10;;;;;;5012079;28;20120;-55
2023/08/04 02:21:39;;;;;;;48.45;28.52;;;22.30;72.50;;;;;;5012038;28;20034;-51
2023/08/04 02:24:05;;;;;;;44.47;26.42;;;22.20;73.00;;;;;;5027131;28;20032;-53
2023/08/04 02:26:31;;;;;;;41.65;24.67;;;22.20;72.50;;;;;;5011639;28;20128;-53
2023/08/04 02:28:57;;;;;;;43.72;26.27;;;22.20;72.40;;;;;;5010660;28;20476;-55
2023/08/04 02:31:24;;;;;;;41.92;25.33;;;22.20;72.40;;;;;;5012072;28;20025;-50
2023/08/04 02:33:51;;;;;;;40.53;24.90;;;22.20;72.50;;;;;;5010750;28;20109;-51
2023/08/04 02:36:17;;;;;;;38.45;21.63;;;22.20;72.50;;;;;;5026746;28;20052;-50
2023/08/04 02:38:43;;;;;;;42.22;22.65;;;22.20;72.50;;;;;;5011846;28;20145;-53
2023/08/04 02:41:10;;;;;;;38.25;23.67;;;22.20;72.50;;;;;;5012004;28;20045;-52
2023/08/04 02:43:36;;;;;;;36.88;22.15;;;22.20;72.40;;;;;;5011787;28;20570;-50
2023/08/04 02:46:02;;;;;;;36.97;21.60;;;22.20;72.50;;;;;;5011485;28;20156;-51
2023/08/04 02:48:29;;;;;;;35.67;20.88;;;22.20;72.50;;;;;;5012223;28;20100;-50
2023/08/04 02:51:06;;;;;;;35.20;19.95;;;22.20;72.50;;;;;;5011553;28;20396;-55
2023/08/04 02:53:33;;;;;;;32.70;18.65;;;22.20;73.10;;;;;;5011872;28;20026;-48
2023/08/04 02:55:59;;;;;;;31.35;19.20;;;22.20;72.50;;;;;;5026740;28;20381;-52
2023/08/04 02:58:26;;;;;;;33.03;19.70;;;22.20;72.50;;;;;;5011652;28;20018;-52
2023/08/04 03:00:53;;;;;;;30.30;18.08;;;22.20;72.50;;;;;;5011682;28;20038;-51
2023/08/04 03:03:19;;;;;;;30.70;16.73;;;22.20;72.50;;;;;;5011555;28;20156;-51
2023/08/04 03:05:46;;;;;;;29.85;17.98;;;22.10;72.40;;;;;;5011212;28;20155;-49
2023/08/04 03:08:11;;;;;;;27.75;16.02;;;22.10;72.40;;;;;;5026772;28;20115;-51
2023/08/04 03:10:41;;;;;;;30.65;16.27;;;22.10;72.40;;;;;;5011424;28;20073;-54
2023/08/04 03:13:10;;;;;;;29.90;16.92;;;22.20;72.40;;;;;;5011463;28;20489;-50
2023/08/04 03:15:37;;;;;;;26.60;15.07;;;22.10;72.40;;;;;;5011334;28;20190;-51
2023/08/04 03:18:02;;;;;;;26.27;15.00;;;22.20;72.40;;;;;;5011404;28;20018;-54
2023/08/04 03:20:30;;;;;;;27.00;13.50;;;22.10;72.30;;;;;;5011447;28;20033;-50
2023/08/04 03:22:58;;;;;;;24.70;13.70;;;22.10;72.30;;;;;;5014073;28;20104;-48
2023/08/04 03:25:23;;;;;;;27.13;14.85;;;22.10;72.30;;;;;;5014734;28;20026;-49
2023/08/04 03:27:49;;;;;;;25.58;14.75;;;22.10;72.30;;;;;;5015042;28;20076;-50
2023/08/04 03:30:15;;;;;;;21.90;12.38;;;22.10;72.30;;;;;;5013775;28;20026;-48
2023/08/04 03:32:41;;;;;;;25.55;13.80;;;22.10;72.20;;;;;;5014963;28;20029;-54
2023/08/04 03:35:07;;;;;;;23.63;13.23;;;22.10;72.30;;;;;;5014768;28;20424;-55
2023/08/04 03:37:33;;;;;;;22.73;12.05;;;22.10;72.30;;;;;;5015070;28;20032;-56
2023/08/04 03:39:58;;;;;;;19.25;11.40;;;22.10;72.20;;;;;;5015043;28;20033;-51
2023/08/04 03:42:24;;;;;;;23.00;12.80;;;22.10;72.30;;;;;;5014890;28;20105;-53
2023/08/04 03:44:50;;;;;;;22.13;11.55;;;22.10;72.30;;;;;;5014485;28;20037;-54
2023/08/04 03:47:16;;;;;;;21.27;11.95;;;22.10;72.10;;;;;;5014644;28;20025;-51
2023/08/04 03:49:41;;;;;;;22.33;11.40;;;22.10;72.10;;;;;;5014840;28;20050;-51
2023/08/04 03:52:07;;;;;;;21.17;11.55;;;22.10;72.10;;;;;;5014659;28;20030;-53
2023/08/04 03:54:33;;;;;;;20.17;11.40;;;22.10;72.10;;;;;;5014496;28;20022;-51
2023/08/04 03:56:59;;;;;;;20.27;11.10;;;22.20;72.10;;;;;;5014447;28;20026;-53
2023/08/04 03:59:25;;;;;;;19.33;10.40;;;22.20;72.10;;;;;;5014666;28;20026;-50
2023/08/04 04:01:50;;;;;;;17.38;10.25;;;22.10;72.00;;;;;;5014512;28;20493;-51
2023/08/04 04:04:16;;;;;;;18.70;9.93;;;22.10;72.00;;;;;;5014433;28;20040;-51
2023/08/04 04:06:42;;;;;;;20.60;10.80;;;22.20;72.10;;;;;;5014149;28;20370;-48
2023/08/04 04:09:08;;;;;;;19.83;9.65;;;22.10;71.90;;;;;;5014251;28;20032;-48
2023/08/04 04:11:33;;;;;;;16.95;9.50;;;22.10;71.90;;;;;;5014386;28;20071;-49
2023/08/04 04:13:59;;;;;;;19.10;9.85;;;22.10;71.90;;;;;;5014328;28;20057;-57
2023/08/04 04:16:30;;;;;;;18.58;9.95;;;22.10;71.90;;;;;;5013937;28;20025;-55
2023/08/04 04:18:56;;;;;;;17.38;8.70;;;22.20;72.00;;;;;;5014378;28;20400;-52
2023/08/04 04:21:22;;;;;;;18.13;9.50;;;22.10;71.80;;;;;;5014204;28;20546;-50
2023/08/04 04:23:47;;;;;;;18.25;9.18;;;22.20;71.90;;;;;;5014142;28;20176;-55
2023/08/04 04:26:14;;;;;;;18.55;9.70;;;22.10;71.80;;;;;;5048480;22;20460;-49
2023/08/04 04:28:40;;;;;;;19.02;9.65;;;22.20;71.90;;;;;;5044250;28;20563;-49
2023/08/04 04:31:06;;;;;;;17.08;8.88;;;22.10;71.80;;;;;;5053788;28;20120;-49
2023/08/04 04:33:31;;;;;;;15.23;8.07;;;22.10;71.80;;;;;;5053401;28;20103;-51
2023/08/04 04:35:57;;;;;;;16.30;8.75;;;22.10;71.70;;;;;;5053149;28;20096;-47
2023/08/04 04:38:27;;;;;;;19.88;8.63;;;22.10;71.70;;;;;;5053604;28;20032;-45
2023/08/04 04:41:01;;;;;;;15.60;7.70;;;22.10;71.80;;;;;;5053510;28;20029;-48
2023/08/04 04:43:28;;;;;;;14.93;7.40;;;22.10;71.80;;;;;;5053394;28;20033;-51
2023/08/04 04:45:55;;;;;;;17.25;8.15;;;22.10;71.80;;;;;;5052986;28;20040;-43
2023/08/04 04:48:23;;;;;;;14.75;7.63;;;22.10;71.80;;;;;;5053774;28;20025;-43
2023/08/04 04:50:52;;;;;;;17.70;8.27;;;22.10;71.70;;;;;;5053197;28;20021;-44
2023/08/04 04:53:18;;;;;;;13.80;7.57;;;22.10;71.80;;;;;;5053257;28;20025;-44
2023/08/04 04:55:44;;;;;;;15.73;7.72;;;22.10;71.70;;;;;;5052719;28;20075;-46
2023/08/04 04:58:12;;;;;;;16.38;7.55;;;22.10;71.70;;;;;;5053098;28;20032;-47
2023/08/04 05:00:38;;;;;;;14.73;6.78;;;22.10;71.70;;;;;;5053130;28;20028;-44
2023/08/04 05:03:06;;;;;;;13.77;6.68;;;22.10;71.60;;;;;;5053115;28;20043;-43
2023/08/04 05:05:32;;;;;;;14.68;7.18;;;22.10;71.70;;;;;;5052733;28;20403;-48
2023/08/04 05:07:59;;;;;;;14.02;6.80;;;22.10;71.70;;;;;;5052725;28;20028;-45
2023/08/04 05:10:26;;;;;;;14.50;7.28;;;22.10;71.60;;;;;;5052754;28;20496;-44
2023/08/04 05:12:52;;;;;;;14.25;6.72;;;22.10;71.60;;;;;;5052899;28;20476;-44
2023/08/04 05:15:18;;;;;;;17.17;7.65;;;22.10;71.60;;;;;;5051252;28;20026;-43
2023/08/04 05:17:44;;;;;;;14.73;6.63;;;22.10;71.70;;;;;;5052775;28;20168;-45
2023/08/04 05:20:11;;;;;;;14.35;6.32;;;22.10;71.60;;;;;;5052722;28;20732;-48
2023/08/04 05:22:37;;;;;;;15.73;5.97;;;22.10;71.60;;;;;;5052805;28;20032;-44
2023/08/04 05:25:07;;;;;;;18.75;6.97;;;22.10;71.60;;;;;;5052053;28;20028;-49
2023/08/04 05:27:33;;;;;;;;;;;22.10;71.50;;;;;;5053016;28;20036;-49
2023/08/04 05:30:00;;;;;;;13.75;6.40;;;22.10;71.50;;;;;;5052444;28;19913;-44
2023/08/04 05:32:26;;;;;;;14.57;6.57;;;22.10;71.50;;;;;;5052525;28;20100;-44
2023/08/04 05:34:52;;;;;;;13.27;6.50;;;22.10;71.50;;;;;;5052452;28;20025;-49
2023/08/04 05:37:18;;;;;;;13.75;6.20;;;22.10;71.50;;;;;;5052383;28;20527;-45
2023/08/04 05:39:44;;;;;;;12.57;6.25;;;22.10;71.50;;;;;;5052281;28;20523;-45
2023/08/04 05:42:10;;;;;;;13.23;6.30;;;22.10;71.50;;;;;;5052471;28;20500;-49
2023/08/04 05:44:35;;;;;;;11.73;6.10;;;22.10;71.40;;;;;;5051505;28;20033;-44
2023/08/04 05:47:01;;;;;;;12.10;5.93;;;22.10;71.40;;;;;;5050791;28;20029;-44
2023/08/04 05:49:27;;;;;;;12.10;5.95;;;22.10;71.40;;;;;;5052054;28;20033;-44
2023/08/04 05:51:53;;;;;;;13.50;6.40;;;22.00;71.30;;;;;;5052100;28;20017;-45
2023/08/04 05:54:19;;;;;;;14.15;6.10;;;22.10;71.40;;;;;;5051879;28;20048;-44
2023/08/04 05:56:44;;;;;;;14.45;6.38;;;22.10;71.40;;;;;;5051781;28;20027;-43
2023/08/04 05:59:10;;;;;;;12.38;5.88;;;22.00;71.30;;;;;;5052149;28;20035;-50
2023/08/04 06:01:36;;;;;;;15.63;6.75;;;22.10;71.40;;;;;;5051797;28;20033;-52
2023/08/04 06:04:02;;;;;;;17.48;6.43;;;22.10;71.20;;;;;;5051936;28;20492;-51
2023/08/04 06:06:28;;;;;;;15.40;7.03;;;22.10;71.20;;;;;;5051475;28;20033;-46
2023/08/04 06:08:54;;;;;;;16.42;6.55;;;22.10;71.20;;;;;;5051718;28;20040;-44
2023/08/04 06:11:21;;;;;;;14.65;6.40;;;22.10;71.30;;;;;;5051589;28;20106;-44
2023/08/04 06:13:47;;;;;;;13.32;6.63;;;22.10;71.20;;;;;;5051038;28;20028;-46
2023/08/04 06:16:13;;;;;;;13.07;6.28;;;22.10;71.20;;;;;;5051331;28;20060;-46
2023/08/04 06:18:39;;;;;;;13.65;6.40;;;22.10;71.20;;;;;;5051953;28;20033;-44
2023/08/04 06:21:05;;;;;;;14.75;6.30;;;22.10;71.10;;;;;;5051754;28;20028;-45
2023/08/04 06:23:30;;;;;;;14.00;6.15;;;22.10;71.10;;;;;;5051640;28;20079;-46
2023/08/04 06:25:56;;;;;;;12.60;6.50;;;22.10;71.10;;;;;;5051163;28;20108;-45
2023/08/04 06:28:22;;;;;;;14.40;6.35;;;22.10;71.10;;;;;;5051521;28;20489;-44
2023/08/04 06:30:48;;;;;;;14.15;6.55;;;22.10;71.10;;;;;;5051531;28;20063;-44
2023/08/04 06:33:13;;;;;;;12.82;6.07;;;22.10;71.10;;;;;;5051594;28;20559;-44
2023/08/04 06:35:41;;;;;;;11.68;6.28;;;22.10;71.00;;;;;;5051167;28;20496;-47
2023/08/04 06:38:10;;;;;;;15.32;5.78;;;22.10;71.00;;;;;;5051480;28;20028;-43
2023/08/04 06:40:37;;;;;;;11.75;5.45;;;22.10;71.50;;;;;;5051404;28;20055;-46
2023/08/04 06:43:03;;;;;;;11.80;5.38;;;22.10;70.90;;;;;;5051568;28;20065;-44
2023/08/04 06:45:29;;;;;;;12.95;5.90;;;22.10;70.90;;;;;;5050930;28;20059;-44
2023/08/04 06:47:55;;;;;;;14.27;5.75;;;22.10;71.00;;;;;;5051566;28;20029;-44
2023/08/04 06:50:21;;;;;;;14.27;5.65;;;22.10;70.90;;;;;;5051282;28;20078;-44
2023/08/04 06:52:47;;;;;;;14.10;5.70;;;22.10;70.90;;;;;;5051260;28;20481;-45
2023/08/04 06:55:13;;;;;;;14.57;5.93;;;22.10;71.50;;;;;;5050904;28;20083;-45
2023/08/04 06:57:39;;;;;;;12.57;5.35;;;22.10;70.90;;;;;;5053699;28;20028;-43
2023/08/04 07:00:06;;;;;;;12.88;5.53;;;22.10;70.80;;;;;;5055421;28;20039;-47
2023/08/04 07:02:32;;;;;;;10.77;5.20;;;22.10;70.90;;;;;;5055354;28;20108;-47
2023/08/04 07:04:58;;;;;;;11.43;5.50;;;22.10;70.80;;;;;;5054008;28;20139;-44
2023/08/04 07:07:24;;;;;;;12.45;5.57;;;22.10;70.80;;;;;;5055222;28;20032;-44
2023/08/04 07:09:50;;;;;;;11.70;4.97;;;22.10;70.90;;;;;;5055063;28;20055;-45
2023/08/04 07:12:16;;;;;;;13.65;5.00;;;22.10;70.80;;;;;;5055176;28;20063;-43
2023/08/04 07:14:41;;;;;;;12.05;5.32;;;22.10;70.80;;;;;;5054784;28;20040;-46
2023/08/04 07:17:07;;;;;;;12.80;5.38;;;22.10;70.80;;;;;;5054905;28;20029;-44
2023/08/04 07:19:33;;;;;;;10.75;5.63;;;22.00;70.80;;;;;;5055062;28;20029;-49
2023/08/04 07:21:59;;;;;;;10.93;4.53;;;22.10;70.90;;;;;;5050911;28;20492;-52
2023/08/04 07:24:25;;;;;;;15.00;5.10;;;22.10;70.80;;;;;;5050379;28;20025;-50
2023/08/04 07:26:51;;;;;;;11.55;4.07;;;22.10;70.10;;;;;;5050752;28;20044;-51
2023/08/04 07:29:17;;;;;;;10.73;3.95;;;22.00;69.10;;;;;;5051199;28;20497;-48
2023/08/04 07:31:43;;;;;;;10.80;4.03;;;22.00;68.50;;;;;;5051818;28;20025;-44
2023/08/04 07:34:08;;;;;;;13.52;4.10;;;21.90;68.70;;;;;;5051328;28;20033;-46
2023/08/04 07:36:34;;;;;;;15.50;4.18;;;21.90;69.00;;;;;;5051452;28;20104;-43
2023/08/04 07:39:00;;;;;;;13.63;4.63;;;21.90;69.00;;;;;;5052079;28;20393;-47
2023/08/04 07:41:26;;;;;;;12.82;4.70;;;22.00;69.80;;;;;;5051677;28;20060;-43
2023/08/04 07:43:52;;;;;;;14.93;4.53;;;22.00;69.20;;;;;;5051060;28;20295;-44
2023/08/04 07:46:22;;;;;;;11.55;3.40;;;22.10;69.50;;;;;;5052103;28;20021;-47
2023/08/04 07:48:50;;;;;;;18.45;3.97;;;22.10;69.20;;;;;;5052151;28;20071;-45
2023/08/04 07:51:16;;;;;;;19.38;4.10;;;22.20;68.90;;;;;;5051507;28;20382;-48
2023/08/04 07:53:42;;;;;;;8.45;3.58;;;22.20;67.80;;;;;;5051728;28;20151;-43
2023/08/04 07:56:08;;;;;;;12.90;3.40;;;22.20;68.10;;;;;;5051632;28;20030;-43
2023/08/04 07:58:33;;;;;;;12.00;3.40;;;22.20;68.50;;;;;;5051835;28;20112;-45
2023/08/04 08:00:59;;;;;;;17.65;3.78;;;22.20;68.40;;;;;;5051314;28;20104;-50
2023/08/04 08:03:25;;;;;;;9.55;3.42;;;22.20;67.70;;;;;;5049477;28;20032;-48
2023/08/04 08:05:51;;;;;;;12.35;3.22;;;22.10;67.80;;;;;;5051525;28;20060;-46
2023/08/04 08:08:18;;;;;;;13.18;3.45;;;22.00;67.00;;;;;;5049717;28;20033;-45
2023/08/04 08:10:44;;;;;;;9.35;2.65;;;22.00;67.50;;;;;;5050357;28;20115;-44
2023/08/04 08:13:10;;;;;;;10.60;3.13;;;22.00;66.60;;;;;;5050499;28;20488;-44
2023/08/04 08:15:36;;;;;;;10.70;3.00;;;22.00;66.80;;;;;;5051088;28;20070;-46
2023/08/04 08:18:03;;;;;;;10.38;3.10;;;22.00;67.00;;;;;;5051112;28;20017;-46
2023/08/04 08:20:29;;;;;;;15.18;3.53;;;22.00;66.20;;;;;;5051086;28;20033;-47
2023/08/04 08:22:56;;;;;;;14.82;2.72;;;22.00;66.70;;;;;;5049782;28;20044;-47
2023/08/04 08:25:22;;;;;;;11.82;2.97;;;21.90;67.00;;;;;;5051136;28;20120;-49
2023/08/04 08:27:48;;;;;;;13.70;2.88;;;21.90;66.60;;;;;;5051548;28;20116;-48
2023/08/04 08:30:14;;;;;;;20.13;3.85;;;22.00;66.60;;;;;;5051372;28;20068;-45
2023/08/04 08:32:40;;;;;;;26.30;3.83;;;22.00;66.80;;;;;;5051392;28;20048;-44
2023/08/04 08:35:06;;;;;;;16.33;4.03;;;22.10;67.00;;;;;;5050862;28;20516;-46
2023/08/04 08:37:32;;;;;;;12.13;3.40;;;22.10;67.00;;;;;;5049276;28;20025;-46
2023/08/04 08:39:58;;;;;;;21.67;3.90;;;22.10;67.20;;;;;;5048154;28;20591;-47
2023/08/04 08:42:24;;;;;;;15.32;3.42;;;22.20;67.40;;;;;;5050508;28;20059;-50
2023/08/04 08:44:49;;;;;;;12.65;3.40;;;22.20;67.20;;;;;;5051288;28;20033;-47
2023/08/04 08:47:20;;;;;;;14.18;3.95;;;22.20;67.30;;;;;;5050624;28;20029;-43
2023/08/04 08:49:50;;;;;;;10.63;3.55;;;22.20;67.20;;;;;;5050529;28;20033;-46
2023/08/04 08:52:20;;;;;;;11.85;3.20;;;22.20;67.30;;;;;;5050970;28;20040;-48
2023/08/04 08:54:47;;;;;;;14.82;3.28;;;22.20;67.30;;;;;;5050700;28;20029;-49
2023/08/04 08:57:15;;;;;;;12.95;3.53;;;22.30;67.30;;;;;;5050796;28;20021;-47
2023/08/04 08:59:41;;;;;;;10.95;3.60;;;22.20;67.50;;;;;;5050285;28;20111;-49
2023/08/04 09:02:08;;;;;;;10.07;3.85;;;22.20;67.50;;;;;;5050139;28;20029;-48
2023/08/04 09:04:33;;;;;;;11.65;3.50;;;22.20;67.60;;;;;;5049172;28;20449;-51
2023/08/04 09:06:59;;;;;;;11.77;3.33;;;22.30;67.70;;;;;;5050501;28;20113;-44
2023/08/04 09:09:25;;;;;;;12.35;4.18;;;22.20;67.80;;;;;;5050298;28;20061;-49
2023/08/04 09:11:51;;;;;;;13.52;4.07;;;22.20;67.80;;;;;;5050342;28;20039;-46
2023/08/04 09:14:17;;;;;;;12.95;3.40;;;22.20;67.90;;;;;;5050203;28;20025;-44
2023/08/04 09:16:43;;;;;;;12.93;4.05;;;22.20;68.00;;;;;;5050085;28;20479;-48
2023/08/04 09:19:09;;;;;;;12.63;4.22;;;22.20;68.10;;;;;;5049129;28;20027;-46
2023/08/04 09:21:36;;;;;;;16.75;4.40;;;22.20;68.60;;;;;;5049713;28;20548;-48
2023/08/04 09:24:09;;;;;;;13.75;4.28;;;22.20;68.40;;;;;;5050508;28;20455;-52
2023/08/04 09:26:42;;;;;;;17.23;4.10;;;22.30;68.80;;;;;;5049841;28;20100;-51
2023/08/04 09:29:08;;;;;;;15.52;4.05;;;22.30;68.80;;;;;;5050120;28;20029;-48
2023/08/04 09:31:39;;;;;;;13.32;3.70;;;22.20;67.40;;;;;;5049928;28;20116;-50
2023/08/04 09:34:06;;;;;;;14.32;3.75;;;22.20;67.00;;;;;;5050095;28;20029;-50
2023/08/04 09:36:38;;;;;;;12.25;3.35;;;22.20;67.50;;;;;;5049576;28;20143;-45
2023/08/04 09:39:05;;;;;;;18.98;4.00;;;22.20;67.70;;;;;;5047743;28;20569;-49
2023/08/04 09:41:38;;;;;;;11.52;3.42;;;22.20;67.60;;;;;;5049151;28;20488;-49
2023/08/04 09:44:05;;;;;;;13.07;3.58;;;22.10;67.60;;;;;;5049813;28;20528;-49
2023/08/04 09:46:31;;;;;;;10.93;3.00;;;22.10;66.70;;;;;;5049550;28;20025;-49
2023/08/04 09:49:00;;;;;;;18.58;3.45;;;22.10;66.30;;;;;;5050143;28;20562;-52
2023/08/04 09:51:26;;;;;;;10.13;3.00;;;22.10;67.20;;;;;;5049940;28;20036;-51
2023/08/04 09:53:56;;;;;;;9.25;2.50;;;22.10;65.80;;;;;;5049609;28;20415;-47
2023/08/04 09:56:28;;;;;;;8.88;2.83;;;21.90;64.00;;;;;;5049363;28;20017;-47
2023/08/04 09:58:56;;;;;;;10.93;2.20;;;21.90;62.40;;;;;;5049453;28;20040;-51
2023/08/04 10:01:21;;;;;;;11.32;2.78;;;21.70;62.80;;;;;;5049099;28;20047;-48
2023/08/04 10:03:53;;;;;;;9.38;2.70;;;21.80;65.00;;;;;;5049675;28;20029;-52
2023/08/04 10:06:20;;;;;;;12.07;2.78;;;21.80;64.50;;;;;;5047491;28;20033;-47
2023/08/04 10:08:48;;;;;;;4.97;2.40;;;21.80;64.00;;;;;;5049616;28;20036;-50
2023/08/04 10:11:14;;;;;;;10.63;3.05;;;21.80;63.80;;;;;;5049294;28;20028;-47
2023/08/04 10:13:43;;;;;;;10.32;3.15;;;21.80;64.30;;;;;;5049500;28;20036;-52
2023/08/04 10:16:13;;;;;;;8.83;2.37;;;21.70;65.00;;;;;;5048941;28;20025;-47
2023/08/04 10:18:46;;;;;;;11.93;2.70;;;21.70;66.10;;;;;;5048990;28;20025;-50
2023/08/04 10:21:12;;;;;;;8.65;2.55;;;21.60;67.80;;;;;;5048926;28;20033;-46
2023/08/04 10:23:38;;;;;;;10.07;2.97;;;21.50;68.40;;;;;;5049162;28;20078;-53
2023/08/04 10:26:04;;;;;;;17.48;3.90;;;21.60;68.90;;;;;;5047477;28;20049;-50
2023/08/04 10:28:33;;;;;;;16.90;4.47;;;21.70;69.30;;;;;;5049217;28;20039;-48
2023/08/04 10:31:11;;;;;;;19.35;4.88;;;21.60;69.80;;;;;;5048896;28;20033;-46
2023/08/04 10:33:37;;;;;;;20.45;3.92;;;21.60;70.40;;;;;;5049132;28;20033;-46
2023/08/04 10:36:08;;;;;;;24.27;4.55;;;21.60;70.30;;;;;;5048618;28;20527;-48
2023/08/04 10:38:49;;;;;;;16.48;3.85;;;21.70;70.20;;;;;;5048756;28;20493;-45
2023/08/04 10:41:15;;;;;;;8.50;3.22;;;21.70;70.10;;;;;;5047397;28;20541;-46
2023/08/04 10:43:59;;;;;;;11.63;2.97;;;21.80;70.70;;;;;;5049250;28;20155;-47
2023/08/04 10:46:25;;;;;;;16.27;3.30;;;21.90;70.30;;;;;;5048518;28;20108;-48
2023/08/04 10:48:51;;;;;;;12.02;3.05;;;21.90;69.80;;;;;;5047803;28;20108;-49
2023/08/04 10:51:17;;;;;;;13.40;3.47;;;21.90;70.00;;;;;;5048708;28;20440;-46
2023/08/04 10:53:43;;;;;;;9.75;3.15;;;22.00;69.70;;;;;;5049120;28;20096;-46
2023/08/04 10:56:09;;;;;;;11.38;2.97;;;22.00;69.80;;;;;;5048202;28;20127;-48
2023/08/04 10:58:35;;;;;;;8.77;2.95;;;22.00;69.70;;;;;;5048395;28;20025;-45
2023/08/04 11:01:01;;;;;;;7.75;2.70;;;22.00;69.40;;;;;;5048714;28;20032;-46
2023/08/04 11:03:29;;;;;;;9.63;2.92;;;22.00;69.30;;;;;;5045035;28;20033;-46
2023/08/04 11:05:56;;;;;;;12.55;2.80;;;22.00;68.80;;;;;;5048421;28;20500;-45
2023/08/04 11:08:23;;;;;;;8.70;2.60;;;22.00;68.80;;;;;;5048987;28;20218;-45
2023/08/04 11:10:51;;;;;;;17.60;3.65;;;22.00;68.90;;;;;;5048193;28;20067;-49
2023/08/04 11:13:18;;;;;;;6.97;2.80;;;22.10;69.20;;;;;;5048651;28;20404;-46
2023/08/04 11:15:45;;;;;;;4.53;2.60;;;22.00;69.00;;;;;;5048362;28;20028;-45
2023/08/04 11:18:15;;;;;;;12.55;2.72;;;22.00;68.40;;;;;;5047716;28;20503;-47
2023/08/04 11:20:42;;;;;;;9.27;3.08;;;22.00;68.00;;;;;;5048977;28;20032;-50
2023/08/04 11:23:11;;;;;;;7.20;2.58;;;22.00;68.30;;;;;;5046954;28;20021;-51
2023/08/04 11:25:39;;;;;;;9.45;2.72;;;22.00;67.30;;;;;;5047858;28;20061;-48
2023/08/04 11:28:06;;;;;;;6.07;2.03;;;22.00;67.10;;;;;;5048498;28;20091;-50
2023/08/04 11:30:36;;;;;;;7.07;2.53;;;22.00;67.30;;;;;;5048462;28;20111;-46
2023/08/04 11:33:03;;;;;;;;;;;22.00;67.40;;;;;;5049050;28;20029;-50
2023/08/04 11:35:32;;;;;;;8.73;2.65;;;22.00;67.80;;;;;;5048161;28;19919;-51
2023/08/04 11:38:00;;;;;;;7.82;2.60;;;22.00;66.90;;;;;;5046891;28;20104;-48
2023/08/04 11:40:26;;;;;;;9.13;2.78;;;22.00;66.40;;;;;;5048028;28;20576;-50
2023/08/04 11:42:52;;;;;;;9.50;2.90;;;22.00;67.00;;;;;;5047635;28;20039;-51
2023/08/04 11:45:19;;;;;;;7.25;2.72;;;22.00;66.90;;;;;;5051587;28;20496;-45
2023/08/04 11:47:45;;;;;;;8.40;3.10;;;22.00;67.10;;;;;;5052047;28;20033;-53
2023/08/04 11:50:10;;;;;;;5.75;2.42;;;22.00;66.80;;;;;;5052041;28;20112;-52
2023/08/04 11:52:40;;;;;;;9.20;2.45;;;22.00;66.20;;;;;;5051700;28;20111;-47
2023/08/04 11:55:06;;;;;;;8.38;2.85;;;21.90;66.40;;;;;;5051917;28;20036;-47
2023/08/04 11:57:32;;;;;;;7.13;2.58;;;22.00;66.80;;;;;;5052100;28;20029;-49
2023/08/04 11:59:58;;;;;;;6.72;2.63;;;22.00;66.40;;;;;;5051839;28;20059;-49
2023/08/04 12:02:26;;;;;;;9.90;2.60;;;22.00;66.70;;;;;;5051286;28;20463;-52
2023/08/04 12:05:13;;;;;;;10.18;3.15;;;22.00;66.40;;;;;;5051578;28;20084;-48
2023/08/04 12:07:39;;;;;;;12.52;3.63;;;22.00;66.40;;;;;;5043377;28;20025;-53
2023/08/04 12:10:06;;;;;;;9.98;2.85;;;22.00;66.50;;;;;;5051720;28;20032;-52
2023/08/04 12:12:40;;;;;;;7.57;2.80;;;22.00;66.90;;;;;;5051561;28;20043;-47
2023/08/04 12:15:06;;;;;;;11.20;3.17;;;22.00;66.70;;;;;;5051523;28;20036;-47
2023/08/04 12:17:40;;;;;;;11.40;3.38;;;22.00;66.60;;;;;;5051299;28;20551;-46
2023/08/04 12:20:11;;;;;;;11.05;3.08;;;22.00;66.80;;;;;;5051196;28;20056;-49
2023/08/04 12:22:37;;;;;;;7.50;3.00;;;22.00;66.90;;;;;;5051027;28;20542;-50
2023/08/04 12:25:05;;;;;;;9.52;2.72;;;22.00;66.90;;;;;;5051202;28;20037;-52
2023/08/04 12:27:31;;;;;;;6.65;2.65;;;22.00;67.00;;;;;;5051323;28;20173;-52
2023/08/04 12:29:57;;;;;;;9.52;3.38;;;22.00;67.10;;;;;;5051386;28;20041;-45
2023/08/04 12:32:23;;;;;;;8.80;3.40;;;22.00;67.20;;;;;;5051233;28;20512;-51
2023/08/04 12:34:48;;;;;;;8.00;3.15;;;22.00;67.10;;;;;;5051140;28;20036;-46